Time;durP1;ratioP1;P1;durP2;ratioP2;P2;SDS_P1;SDS_P2;PMS_P1;PMS_P2;Temp;Humidity;BMP_temperature;BMP_pressure;BME280_temperature;BME280_humidity;BME280_pressure;Samples;Min_cycle;Max_cycle;Signal;HPM_P1;HPM_P2
2023/04/12 00:01:15;;;;;;;6.00;1.17;;;6.10;99.90;;;;;;5028603;28;20042;-41
2023/04/12 00:03:40;;;;;;;8.75;3.85;;;6.00;99.90;;;;;;5036546;28;20045;-40
2023/04/12 00:06:06;;;;;;;7.47;1.10;;;6.00;99.90;;;;;;5035301;28;20040;-40
2023/04/12 00:08:34;;;;;;;5.85;1.30;;;6.20;99.90;;;;;;5040149;28;20052;-40
2023/04/12 00:11:01;;;;;;;7.38;1.25;;;6.10;99.90;;;;;;5036183;28;20133;-41
2023/04/12 00:13:27;;;;;;;7.88;1.23;;;7.20;99.90;;;;;;5036029;28;20793;-41
2023/04/12 00:15:53;;;;;;;9.50;1.50;;;7.10;99.90;;;;;;5032825;28;20046;-42
2023/04/12 00:18:18;;;;;;;5.97;0.90;;;6.00;99.90;;;;;;5035762;28;20756;-42
2023/04/12 00:20:44;;;;;;;6.43;2.17;;;6.10;99.90;;;;;;5036106;28;20191;-41
2023/04/12 00:23:11;;;;;;;6.32;0.98;;;6.10;99.90;;;;;;5038613;28;20053;-41
2023/04/12 00:25:38;;;;;;;10.00;1.58;;;6.10;99.90;;;;;;5032239;28;20056;-41
2023/04/12 00:28:05;;;;;;;11.52;2.17;;;7.30;99.90;;;;;;5037225;28;20060;-41
2023/04/12 00:30:31;;;;;;;10.32;1.40;;;6.30;99.90;;;;;;5038336;28;20056;-41
2023/04/12 00:32:57;;;;;;;9.38;1.40;;;6.30;99.90;;;;;;5032177;28;20041;-42
2023/04/12 00:35:23;;;;;;;6.03;1.13;;;6.30;99.90;;;;;;5027226;28;20038;-41
2023/04/12 00:37:49;;;;;;;4.93;1.15;;;6.70;99.90;;;;;;5034782;28;20859;-42
2023/04/12 00:40:15;;;;;;;7.70;1.15;;;6.80;99.90;;;;;;5027292;28;20060;-42
2023/04/12 00:42:41;;;;;;;12.43;1.58;;;6.40;99.90;;;;;;5034893;28;20048;-42
2023/04/12 00:45:07;;;;;;;6.97;1.00;;;7.40;99.90;;;;;;5033354;28;20569;-41
2023/04/12 00:47:36;;;;;;;8.48;1.33;;;6.50;99.90;;;;;;5042194;28;20037;-41
2023/04/12 00:50:04;;;;;;;5.38;1.40;;;6.90;99.90;;;;;;5028480;28;20119;-42
2023/04/12 00:52:33;;;;;;;11.27;1.08;;;6.50;99.90;;;;;;5033932;28;20040;-43
2023/04/12 00:55:02;;;;;;;7.38;1.02;;;6.90;99.90;;;;;;5030384;28;20109;-41
2023/04/12 00:57:33;;;;;;;4.97;1.13;;;7.70;99.90;;;;;;5029606;28;20099;-41
2023/04/12 00:59:58;;;;;;;5.78;1.30;;;6.80;99.90;;;;;;5035587;28;20056;-41
2023/04/12 01:02:25;;;;;;;8.07;1.10;;;6.60;99.90;;;;;;5027648;28;20038;-41
2023/04/12 01:04:52;;;;;;;15.50;1.33;;;6.60;99.90;;;;;;5026888;28;20049;-41
2023/04/12 01:07:32;;;;;;;8.90;1.55;;;6.40;99.90;;;;;;5033817;28;20049;-42
2023/04/12 01:10:12;;;;;;;9.15;2.00;;;6.70;99.90;;;;;;5026638;28;20107;-43
2023/04/12 01:13:12;;;;;;;7.68;1.33;;;7.90;99.90;;;;;;5036384;28;20045;-41
2023/04/12 01:15:44;;;;;;;10.38;1.60;;;6.70;99.90;;;;;;5029012;28;20056;-42
2023/04/12 01:18:22;;;;;;;10.05;1.27;;;7.50;99.90;;;;;;5037100;28;20050;-42
2023/04/12 01:21:02;;;;;;;9.45;1.30;;;7.30;99.90;;;;;;5036515;28;20059;-42
2023/04/12 01:23:46;;;;;;;7.82;1.33;;;7.90;99.90;;;;;;5033018;28;20479;-43
2023/04/12 01:26:24;;;;;;;7.45;1.75;;;6.80;99.90;;;;;;5035199;28;20037;-44
2023/04/12 01:28:53;;;;;;;7.70;1.23;;;6.80;99.90;;;;;;5028359;28;20055;-42
2023/04/12 01:31:20;;;;;;;8.85;1.60;;;6.60;99.90;;;;;;5032228;28;20841;-41
2023/04/12 01:33:48;;;;;;;11.30;1.73;;;7.70;99.90;;;;;;5039639;28;20082;-42
2023/04/12 01:36:17;;;;;;;11.27;1.58;;;6.70;99.90;;;;;;5034954;28;20051;-42
2023/04/12 01:38:44;;;;;;;6.68;1.40;;;6.80;99.90;;;;;;5029822;28;20541;-41
2023/04/12 01:41:10;;;;;;;9.32;1.73;;;6.90;99.90;;;;;;5039690;28;20040;-41
2023/04/12 01:43:43;;;;;;;9.70;1.60;;;7.70;99.90;;;;;;5030576;28;20049;-41
2023/04/12 01:46:13;;;;;;;11.48;1.65;;;8.10;99.90;;;;;;5030098;28;20769;-41
2023/04/12 01:48:44;;;;;;;8.07;1.60;;;6.80;99.90;;;;;;5035259;28;20086;-41
2023/04/12 01:51:22;;;;;;;6.32;1.35;;;7.50;99.90;;;;;;5027509;28;20045;-42
2023/04/12 01:53:55;;;;;;;7.68;2.55;;;7.00;99.90;;;;;;5028095;28;20156;-42
2023/04/12 01:56:23;;;;;;;9.80;1.50;;;7.10;99.90;;;;;;5031176;28;20048;-42
2023/04/12 01:58:52;;;;;;;7.00;1.50;;;7.10;99.90;;;;;;5033208;28;20396;-41
2023/04/12 02:01:18;;;;;;;11.98;1.70;;;8.00;99.90;;;;;;5038950;28;20056;-41
2023/04/12 02:03:48;;;;;;;6.80;1.38;;;7.70;99.90;;;;;;5033202;28;20044;-41
2023/04/12 02:06:17;;;;;;;8.50;1.70;;;7.60;99.90;;;;;;5032346;28;20045;-41
2023/04/12 02:08:44;;;;;;;6.70;1.75;;;7.20;99.90;;;;;;5034278;28;20573;-41
2023/04/12 02:11:10;;;;;;;7.05;1.70;;;7.20;99.90;;;;;;5039105;28;20395;-42
2023/04/12 02:13:36;;;;;;;9.10;2.08;;;7.20;99.90;;;;;;5029837;28;20045;-42
2023/04/12 02:16:02;;;;;;;7.80;2.15;;;7.20;99.90;;;;;;5027118;28;20510;-42
2023/04/12 02:18:29;;;;;;;8.95;1.92;;;7.20;99.90;;;;;;5034599;28;20373;-42
2023/04/12 02:20:55;;;;;;;7.80;1.70;;;8.20;99.90;;;;;;5029324;28;20165;-41
2023/04/12 02:23:21;;;;;;;9.55;2.13;;;7.10;99.90;;;;;;5034934;28;20045;-41
2023/04/12 02:25:47;;;;;;;9.63;1.70;;;8.00;99.90;;;;;;5031463;28;20050;-46
2023/04/12 02:28:12;;;;;;;6.72;2.13;;;7.40;99.90;;;;;;5035035;28;20683;-41
2023/04/12 02:30:40;;;;;;;7.07;1.73;;;6.90;99.90;;;;;;5030203;28;20128;-41
2023/04/12 02:33:08;;;;;;;7.53;1.40;;;7.00;99.90;;;;;;5034927;28;20103;-41
2023/04/12 02:35:35;;;;;;;7.95;1.42;;;8.40;99.90;;;;;;5028570;28;20045;-43
2023/04/12 02:38:02;;;;;;;6.10;1.63;;;6.90;99.90;;;;;;5035255;28;20045;-41
2023/04/12 02:40:28;;;;;;;10.57;1.80;;;7.20;99.90;;;;;;5035050;28;20129;-42
2023/04/12 02:42:54;;;;;;;5.90;1.15;;;7.20;99.90;;;;;;5032111;28;20116;-41
2023/04/12 02:45:20;;;;;;;6.03;1.40;;;7.70;99.90;;;;;;5026527;28;20567;-42
2023/04/12 02:47:46;;;;;;;8.68;2.03;;;7.30;99.90;;;;;;5034431;28;20151;-41
2023/04/12 02:50:11;;;;;;;8.52;1.00;;;8.40;99.90;;;;;;5036774;28;20037;-41
2023/04/12 02:52:37;;;;;;;8.85;1.52;;;8.60;99.90;;;;;;5032714;28;20038;-42
2023/04/12 02:55:03;;;;;;;7.72;1.40;;;7.30;99.90;;;;;;5038423;28;20110;-41
2023/04/12 02:57:29;;;;;;;9.35;1.95;;;7.30;99.90;;;;;;5034769;28;20096;-42
2023/04/12 02:59:54;;;;;;;7.80;1.40;;;8.50;99.90;;;;;;5029809;28;20148;-41
2023/04/12 03:02:21;;;;;;;11.60;1.95;;;7.10;99.90;;;;;;5037824;28;20048;-41
2023/04/12 03:04:49;;;;;;;10.38;1.45;;;8.30;99.90;;;;;;5046174;28;20128;-40
2023/04/12 03:07:19;;;;;;;7.22;1.67;;;8.60;99.90;;;;;;5034672;28;20037;-42
2023/04/12 03:09:49;;;;;;;4.63;1.50;;;7.10;99.90;;;;;;5028006;28;20100;-40
2023/04/12 03:12:15;;;;;;;4.75;1.33;;;7.10;99.90;;;;;;5032314;28;20045;-42
2023/04/12 03:14:41;;;;;;;10.60;1.48;;;7.80;99.90;;;;;;5031386;28;20048;-41
2023/04/12 03:17:07;;;;;;;9.50;1.52;;;6.90;99.90;;;;;;5026027;28;20183;-40
2023/04/12 03:19:34;;;;;;;7.20;1.38;;;6.90;99.90;;;;;;5025577;28;20136;-41
2023/04/12 03:22:00;;;;;;;6.38;1.15;;;7.20;99.90;;;;;;5031594;28;20185;-41
2023/04/12 03:24:26;;;;;;;7.70;1.13;;;7.00;99.90;;;;;;5037404;28;20661;-40
2023/04/12 03:26:53;;;;;;;5.22;0.90;;;7.70;99.90;;;;;;5034960;28;20052;-41
2023/04/12 03:29:19;;;;;;;6.13;1.45;;;8.20;99.90;;;;;;5027133;28;20048;-40
2023/04/12 03:31:45;;;;;;;8.90;1.38;;;7.80;99.90;;;;;;5034171;28;20132;-41
2023/04/12 03:34:10;;;;;;;7.70;1.40;;;7.30;99.90;;;;;;5027413;28;20152;-41
2023/04/12 03:36:37;;;;;;;6.72;1.10;;;7.30;99.90;;;;;;5045843;28;20120;-42
2023/04/12 03:39:02;;;;;;;5.57;0.95;;;7.30;99.90;;;;;;5029440;28;20097;-41
2023/04/12 03:41:28;;;;;;;8.30;0.88;;;7.30;99.90;;;;;;5037634;28;20499;-41
2023/04/12 03:43:54;;;;;;;6.35;0.85;;;8.50;99.90;;;;;;5031710;28;20135;-41
2023/04/12 03:46:20;;;;;;;9.57;1.83;;;7.40;99.90;;;;;;5046494;28;20126;-41
2023/04/12 03:48:45;;;;;;;7.30;1.27;;;8.10;99.90;;;;;;5034544;28;20514;-42
2023/04/12 03:51:11;;;;;;;4.15;0.70;;;8.30;99.90;;;;;;5036653;28;20402;-42
2023/04/12 03:53:37;;;;;;;6.60;1.08;;;7.90;99.90;;;;;;5039957;28;20709;-41
2023/04/12 03:56:04;;;;;;;5.78;1.08;;;7.40;99.90;;;;;;5030577;28;20096;-42
2023/04/12 03:58:30;;;;;;;7.10;2.30;;;7.40;99.90;;;;;;5033021;28;20079;-41
2023/04/12 04:00:56;;;;;;;6.18;1.40;;;7.50;99.90;;;;;;5035640;28;20139;-43
2023/04/12 04:03:25;;;;;;;6.50;1.20;;;7.40;99.90;;;;;;5031907;28;20045;-41
2023/04/12 04:05:51;;;;;;;8.82;2.95;;;7.90;99.90;;;;;;5035213;28;20239;-41
2023/04/12 04:08:17;;;;;;;6.82;1.02;;;7.40;99.90;;;;;;5035110;28;20041;-41
2023/04/12 04:10:45;;;;;;;8.15;1.20;;;7.40;99.90;;;;;;5032767;28;20429;-42
2023/04/12 04:13:11;;;;;;;7.13;1.15;;;8.60;99.90;;;;;;5039248;28;20045;-42
2023/04/12 04:15:37;;;;;;;7.18;1.30;;;7.30;99.90;;;;;;5034156;28;20041;-41
2023/04/12 04:18:02;;;;;;;6.97;1.48;;;8.20;99.90;;;;;;5038609;28;20068;-42
2023/04/12 04:20:28;;;;;;;10.60;2.22;;;7.20;99.90;;;;;;5038207;28;20123;-41
2023/04/12 04:22:54;;;;;;;9.25;1.77;;;8.10;99.90;;;;;;5030862;28;20048;-41
2023/04/12 04:25:20;;;;;;;5.35;2.35;;;7.10;99.90;;;;;;5030961;28;20049;-41
2023/04/12 04:27:48;;;;;;;9.27;2.08;;;7.00;99.90;;;;;;5030191;28;20053;-43
2023/04/12 04:30:17;;;;;;;6.22;2.17;;;7.20;99.90;;;;;;5034687;28;20086;-42
2023/04/12 04:32:43;;;;;;;10.48;2.60;;;7.30;99.90;;;;;;5028140;28;20052;-41
2023/04/12 04:35:08;;;;;;;7.18;2.60;;;8.20;99.90;;;;;;5028231;28;20403;-42
2023/04/12 04:37:34;;;;;;;12.75;2.03;;;6.80;99.90;;;;;;5034071;28;20042;-42
2023/04/12 04:40:13;;;;;;;7.93;2.05;;;6.70;99.90;;;;;;5031026;28;20087;-41
2023/04/12 04:42:39;;;;;;;10.35;2.42;;;6.50;99.90;;;;;;5034771;28;20045;-42
2023/04/12 04:45:11;;;;;;;8.90;2.33;;;6.60;99.90;;;;;;5031155;28;20038;-42
2023/04/12 04:47:40;;;;;;;6.80;2.13;;;6.60;99.90;;;;;;5033469;28;20073;-42
2023/04/12 04:50:06;;;;;;;8.10;1.83;;;7.70;99.90;;;;;;5034703;28;20037;-41
2023/04/12 04:52:32;;;;;;;4.28;1.80;;;6.50;99.90;;;;;;5033407;28;20802;-41
2023/04/12 04:54:58;;;;;;;9.63;2.60;;;6.50;99.90;;;;;;5032273;28;20083;-41
2023/04/12 04:57:25;;;;;;;8.20;2.22;;;6.20;99.90;;;;;;5031931;28;20072;-42
2023/04/12 04:59:51;;;;;;;6.78;2.22;;;6.30;99.90;;;;;;5029936;28;20116;-42
2023/04/12 05:02:16;;;;;;;9.63;2.00;;;6.50;99.90;;;;;;5034038;28;20186;-41
2023/04/12 05:04:42;;;;;;;9.77;1.80;;;6.50;99.90;;;;;;5039004;28;20106;-41
2023/04/12 05:07:08;;;;;;;11.07;2.20;;;6.30;99.90;;;;;;5040443;28;20711;-42
2023/04/12 05:09:33;;;;;;;6.60;1.75;;;6.20;99.90;;;;;;5033671;28;20083;-43
2023/04/12 05:11:59;;;;;;;8.15;2.30;;;6.90;99.90;;;;;;5037033;28;20041;-41
2023/04/12 05:14:25;;;;;;;7.53;2.00;;;6.60;99.90;;;;;;5030274;28;20041;-41
2023/04/12 05:16:51;;;;;;;9.02;1.98;;;6.30;99.90;;;;;;5034880;28;20057;-42
2023/04/12 05:19:16;;;;;;;10.68;2.28;;;6.70;99.90;;;;;;5029286;28;20052;-42
2023/04/12 05:21:42;;;;;;;9.35;1.95;;;6.40;99.90;;;;;;5036242;28;20045;-41
2023/04/12 05:24:08;;;;;;;7.32;2.00;;;6.30;99.90;;;;;;5034619;28;20079;-41
2023/04/12 05:26:33;;;;;;;5.43;2.28;;;7.00;99.90;;;;;;5030510;28;20037;-42
2023/04/12 05:29:00;;;;;;;10.70;3.92;;;6.20;99.90;;;;;;5032635;28;20052;-41
2023/04/12 05:31:26;;;;;;;7.90;2.28;;;6.40;99.90;;;;;;5036342;28;20084;-41
2023/04/12 05:33:53;;;;;;;8.63;2.72;;;6.30;99.90;;;;;;5031573;28;20061;-42
2023/04/12 05:36:19;;;;;;;6.88;1.98;;;6.40;99.90;;;;;;5029766;28;20033;-45
2023/04/12 05:38:45;;;;;;;10.00;2.03;;;6.40;99.90;;;;;;5036470;28;20055;-43
2023/04/12 05:41:11;;;;;;;5.40;1.65;;;6.90;99.90;;;;;;5038958;28;20037;-42
2023/04/12 05:43:37;;;;;;;9.13;1.95;;;7.10;99.90;;;;;;5039965;28;20100;-43
2023/04/12 05:46:06;;;;;;;7.13;1.90;;;6.40;99.90;;;;;;5031713;28;20044;-43
2023/04/12 05:48:32;;;;;;;10.38;1.60;;;6.40;99.90;;;;;;5029137;28;20042;-41
2023/04/12 05:50:57;;;;;;;9.07;2.55;;;7.90;99.90;;;;;;5039049;28;20524;-41
2023/04/12 05:53:23;;;;;;;6.00;1.77;;;6.20;99.90;;;;;;5036162;28;20052;-42
2023/04/12 05:55:50;;;;;;;8.43;1.55;;;6.30;99.90;;;;;;5036219;28;20044;-41
2023/04/12 05:58:16;;;;;;;7.13;1.60;;;7.70;99.90;;;;;;5035285;28;20041;-41
2023/04/12 06:00:44;;;;;;;8.10;1.92;;;6.60;99.90;;;;;;5034216;28;20041;-42
2023/04/12 06:03:10;;;;;;;10.55;2.03;;;9.20;99.90;;;;;;5030490;28;20119;-43
2023/04/12 06:05:36;;;;;;;9.20;2.30;;;7.60;99.90;;;;;;5028788;28;20549;-41
2023/04/12 06:08:04;;;;;;;8.27;2.53;;;6.60;99.90;;;;;;5030519;28;20040;-43
2023/04/12 06:10:30;;;;;;;10.57;2.35;;;7.00;99.90;;;;;;5028939;28;20175;-42
2023/04/12 06:12:55;;;;;;;8.35;1.83;;;6.50;99.90;;;;;;5029848;28;20744;-41
2023/04/12 06:15:21;;;;;;;6.65;2.50;;;6.60;99.90;;;;;;5034205;28;20051;-43
2023/04/12 06:17:47;;;;;;;7.35;2.38;;;6.50;99.90;;;;;;5035394;28;20050;-42
2023/04/12 06:20:13;;;;;;;11.13;3.10;;;7.70;99.90;;;;;;5032021;28;20498;-41
2023/04/12 06:22:39;;;;;;;13.10;3.30;;;6.70;99.90;;;;;;5035467;28;20384;-41
2023/04/12 06:25:05;;;;;;;8.75;2.40;;;6.70;99.90;;;;;;5037340;28;20048;-43
2023/04/12 06:27:31;;;;;;;11.25;2.63;;;6.70;99.90;;;;;;5040314;28;20045;-43
2023/04/12 06:29:56;;;;;;;7.03;2.10;;;6.80;99.90;;;;;;5036327;28;20090;-41
2023/04/12 06:32:22;;;;;;;8.80;2.88;;;6.70;99.90;;;;;;5028646;28;20394;-42
2023/04/12 06:34:48;;;;;;;12.32;3.40;;;6.50;99.90;;;;;;5029251;28;20037;-41
2023/04/12 06:37:14;;;;;;;15.93;3.58;;;6.40;99.90;;;;;;5034945;28;20116;-42
2023/04/12 06:39:40;;;;;;;9.23;2.50;;;6.70;99.90;;;;;;5037536;28;20057;-44
2023/04/12 06:42:06;;;;;;;8.02;2.38;;;6.50;99.90;;;;;;5032908;28;20115;-41
2023/04/12 06:44:32;;;;;;;8.75;2.60;;;6.50;99.90;;;;;;5031069;28;20033;-41
2023/04/12 06:46:58;;;;;;;12.80;3.45;;;7.00;99.90;;;;;;5031819;28;20542;-42
2023/04/12 06:49:24;;;;;;;8.27;3.03;;;6.50;99.90;;;;;;5034344;28;20415;-41
2023/04/12 06:51:50;;;;;;;9.88;2.88;;;6.70;99.90;;;;;;5037643;28;20056;-42
2023/04/12 06:54:16;;;;;;;10.43;2.88;;;6.70;99.90;;;;;;5030990;28;20048;-42
2023/04/12 06:56:42;;;;;;;9.02;2.35;;;7.90;99.90;;;;;;5037835;28;20111;-43
2023/04/12 06:59:08;;;;;;;12.00;2.92;;;7.50;99.90;;;;;;5037331;28;20490;-41
2023/04/12 07:01:34;;;;;;;12.35;3.08;;;7.30;99.90;;;;;;5035077;28;20041;-44
2023/04/12 07:03:59;;;;;;;14.93;2.70;;;7.00;99.90;;;;;;5028649;28;20041;-41
2023/04/12 07:06:26;;;;;;;13.43;3.55;;;7.30;99.90;;;;;;5028369;28;20056;-41
2023/04/12 07:08:52;;;;;;;13.00;3.38;;;8.20;99.90;;;;;;5025867;28;20084;-42
2023/04/12 07:11:18;;;;;;;10.25;3.33;;;7.10;99.90;;;;;;5031432;28;20050;-42
2023/04/12 07:13:44;;;;;;;13.02;3.20;;;8.00;99.90;;;;;;5036734;28;20040;-41
2023/04/12 07:16:10;;;;;;;8.85;3.38;;;7.10;99.90;;;;;;5035973;28;20525;-43
2023/04/12 07:18:35;;;;;;;17.05;4.57;;;6.80;99.90;;;;;;5004847;28;20060;-43
2023/04/12 07:21:01;;;;;;;14.52;5.13;;;6.90;99.90;;;;;;5013692;28;20079;-43
2023/04/12 07:23:27;;;;;;;9.35;3.03;;;7.00;99.90;;;;;;5022523;28;20040;-44
2023/04/12 07:25:57;;;;;;;9.02;2.80;;;7.00;99.90;;;;;;5029662;28;20049;-44
2023/04/12 07:28:23;;;;;;;13.20;3.70;;;7.00;99.90;;;;;;5026773;28;20132;-41
2023/04/12 07:30:49;;;;;;;8.95;3.88;;;7.10;99.90;;;;;;5028364;28;20140;-42
2023/04/12 07:33:14;;;;;;;11.73;4.18;;;7.40;99.90;;;;;;5023896;28;20060;-45
2023/04/12 07:35:40;;;;;;;9.95;4.10;;;7.10;99.90;;;;;;5014036;28;20857;-42
2023/04/12 07:38:06;;;;;;;122.32;19.98;;;7.20;99.90;;;;;;5013418;28;20246;-43
2023/04/12 07:40:31;;;;;;;15.90;5.50;;;7.30;99.90;;;;;;5015593;28;20045;-42
2023/04/12 07:42:57;;;;;;;491.45;90.53;;;;;;;;;;5008018;28;20722;-43
2023/04/12 07:45:23;;;;;;;8.98;3.70;;;7.10;99.90;;;;;;5009316;28;20084;-42
2023/04/12 07:47:49;;;;;;;13.38;4.22;;;7.00;99.90;;;;;;5010590;28;20034;-42
2023/04/12 07:50:15;;;;;;;13.95;4.68;;;7.10;99.90;;;;;;5018355;28;20048;-47
2023/04/12 07:52:41;;;;;;;8.77;3.70;;;7.20;99.90;;;;;;5029729;28;20045;-43
2023/04/12 07:55:08;;;;;;;9.00;4.32;;;7.10;99.90;;;;;;5031225;28;20395;-43
2023/04/12 07:57:33;;;;;;;9.07;3.65;;;7.10;99.90;;;;;;5028156;28;20041;-43
2023/04/12 07:59:59;;;;;;;18.83;5.28;;;7.10;99.90;;;;;;5027143;28;20056;-41
2023/04/12 08:02:24;;;;;;;15.75;5.40;;;7.00;99.90;;;;;;5025688;28;20598;-42
2023/04/12 08:04:53;;;;;;;12.73;4.32;;;7.50;99.90;;;;;;5019831;28;20566;-41
2023/04/12 08:07:21;;;;;;;13.60;5.05;;;7.50;99.90;;;;;;5011892;28;20123;-42
2023/04/12 08:09:47;;;;;;;8.05;4.63;;;7.20;99.90;;;;;;5011865;28;20045;-41
2023/04/12 08:12:13;;;;;;;13.52;5.05;;;7.10;99.90;;;;;;5012423;28;20714;-42
2023/04/12 08:14:39;;;;;;;13.13;5.57;;;7.80;99.90;;;;;;5010987;28;20037;-42
2023/04/12 08:17:05;;;;;;;10.70;4.35;;;7.20;99.90;;;;;;4999759;28;20041;-41
2023/04/12 08:19:30;;;;;;;10.25;5.10;;;7.00;99.90;;;;;;5006978;28;20033;-41
2023/04/12 08:21:56;;;;;;;12.23;5.05;;;7.40;99.90;;;;;;5009761;28;20063;-42
2023/04/12 08:24:22;;;;;;;12.57;5.25;;;7.20;99.90;;;;;;5010273;28;20090;-41
2023/04/12 08:26:49;;;;;;;12.45;5.80;;;7.50;99.90;;;;;;5010283;28;20049;-42
2023/04/12 08:29:15;;;;;;;7.78;4.32;;;8.60;99.90;;;;;;5011521;28;20855;-43
2023/04/12 08:31:41;;;;;;;9.95;5.00;;;8.10;99.90;;;;;;5012396;28;20046;-43
2023/04/12 08:34:06;;;;;;;9.75;4.88;;;7.20;99.90;;;;;;5019107;28;20114;-42
2023/04/12 08:36:32;;;;;;;19.55;6.30;;;7.50;99.90;;;;;;5030716;28;20084;-42
2023/04/12 08:38:59;;;;;;;7.43;5.00;;;7.60;99.90;;;;;;5004096;28;20053;-44
2023/04/12 08:41:34;;;;;;;42.00;9.68;;;8.20;99.90;;;;;;5011500;28;20048;-44
2023/04/12 08:44:07;;;;;;;12.02;6.03;;;7.70;99.90;;;;;;5024167;28;20053;-44
2023/04/12 08:46:34;;;;;;;;;;;7.70;99.90;;;;;;5013309;28;20050;-43
2023/04/12 08:49:00;;;;;;;16.33;6.63;;;7.80;99.90;;;;;;5033882;28;19952;-42
2023/04/12 08:51:26;;;;;;;446.85;83.32;;;7.80;99.90;;;;;;5022883;28;20144;-43
2023/04/12 08:53:55;;;;;;;87.90;23.00;;;9.10;99.90;;;;;;5015180;28;20041;-43
2023/04/12 08:56:22;;;;;;;209.57;38.60;;;8.00;99.90;;;;;;5004189;28;20377;-45
2023/04/12 08:58:48;;;;;;;95.63;20.85;;;8.60;99.90;;;;;;5007217;28;20114;-40
2023/04/12 09:01:15;;;;;;;32.28;10.75;;;8.20;99.90;;;;;;4994863;28;20047;-42
2023/04/12 09:03:42;;;;;;;23.88;9.32;;;8.60;99.90;;;;;;5022542;28;20041;-43
2023/04/12 09:06:09;;;;;;;32.65;9.23;;;8.30;99.90;;;;;;4999156;28;20049;-45
2023/04/12 09:08:35;;;;;;;55.28;11.52;;;8.30;99.90;;;;;;4982083;28;20133;-49
2023/04/12 09:11:19;;;;;;;30.45;9.57;;;8.40;99.90;;;;;;4976585;28;20470;-47
2023/04/12 09:13:45;;;;;;;10.73;5.85;;;8.40;99.90;;;;;;4988441;28;20041;-46
2023/04/12 09:16:11;;;;;;;13.60;6.25;;;9.10;99.90;;;;;;4974697;28;20468;-48
2023/04/12 09:19:02;;;;;;;11.70;6.10;;;8.70;99.90;;;;;;4980511;28;20129;-45
2023/04/12 09:21:29;;;;;;;12.20;6.13;;;8.40;99.90;;;;;;4982324;28;20041;-45
2023/04/12 09:24:09;;;;;;;9.27;5.57;;;8.30;99.90;;;;;;5002563;28;20131;-46
2023/04/12 09:26:36;;;;;;;8.00;5.50;;;8.60;99.90;;;;;;5004114;28;20091;-45
2023/04/12 09:29:02;;;;;;;13.55;6.25;;;8.10;99.90;;;;;;4994524;28;20154;-49
2023/04/12 09:31:28;;;;;;;19.20;7.03;;;8.30;99.90;;;;;;4987015;28;20041;-49
2023/04/12 09:34:07;;;;;;;12.23;7.05;;;8.80;99.90;;;;;;4993235;28;20053;-47
2023/04/12 09:36:39;;;;;;;10.63;6.00;;;8.00;99.90;;;;;;5021535;28;20049;-47
2023/04/12 09:39:06;;;;;;;11.43;6.78;;;8.10;99.90;;;;;;5018829;28;20478;-47
2023/04/12 09:41:32;;;;;;;11.05;6.90;;;8.10;99.90;;;;;;5018935;28;20037;-45
2023/04/12 09:43:59;;;;;;;26.45;9.77;;;8.60;99.90;;;;;;5020583;28;20034;-47
2023/04/12 09:46:25;;;;;;;20.10;9.13;;;8.10;99.90;;;;;;5006091;28;20033;-45
2023/04/12 09:48:53;;;;;;;10.30;7.35;;;8.20;99.90;;;;;;5016090;28;20040;-47
2023/04/12 09:51:32;;;;;;;15.30;8.40;;;8.40;99.90;;;;;;5014695;28;20045;-46
2023/04/12 09:54:00;;;;;;;14.27;8.15;;;8.50;99.90;;;;;;5005413;28;20033;-47
2023/04/12 09:56:30;;;;;;;11.00;7.88;;;8.60;99.90;;;;;;4972178;28;20487;-45
2023/04/12 09:59:03;;;;;;;18.58;9.52;;;9.20;99.90;;;;;;4981658;28;20033;-46
2023/04/12 10:01:38;;;;;;;11.88;9.70;;;9.00;99.90;;;;;;4976888;28;20371;-49
2023/04/12 10:04:08;;;;;;;16.10;10.43;;;9.50;99.90;;;;;;4987594;28;20041;-43
2023/04/12 10:06:34;;;;;;;50.40;15.25;;;9.70;99.90;;;;;;4991844;28;20119;-44
2023/04/12 10:09:03;;;;;;;41.80;15.43;;;10.00;99.90;;;;;;4943895;28;20150;-45
2023/04/12 10:11:32;;;;;;;20.08;12.32;;;9.70;99.90;;;;;;4964976;28;21131;-48
2023/04/12 10:14:01;;;;;;;19.10;13.48;;;10.20;99.90;;;;;;4963886;28;20079;-49
2023/04/12 10:16:26;;;;;;;14.13;11.77;;;10.70;99.90;;;;;;4958900;28;20624;-44
2023/04/12 10:18:54;;;;;;;16.48;12.90;;;10.90;99.90;;;;;;4970527;28;20056;-48
2023/04/12 10:21:20;;;;;;;32.83;14.85;;;11.10;99.90;;;;;;5010239;28;20107;-45
2023/04/12 10:23:46;;;;;;;15.85;10.98;;;11.10;99.90;;;;;;4958811;28;20083;-48
2023/04/12 10:26:27;;;;;;;18.48;10.57;;;11.10;99.90;;;;;;4964711;28;20582;-52
2023/04/12 10:29:24;;;;;;;20.65;10.45;;;11.10;99.90;;;;;;4970392;28;20104;-52
2023/04/12 10:31:50;;;;;;;19.27;9.25;;;11.00;99.90;;;;;;4971845;28;20049;-58
2023/04/12 10:34:16;;;;;;;17.40;8.65;;;11.00;99.90;;;;;;4970243;28;20663;-52
2023/04/12 10:36:55;;;;;;;13.07;8.80;;;11.20;99.90;;;;;;4979387;28;20163;-47
2023/04/12 10:39:42;;;;;;;287.77;52.13;;;11.50;99.90;;;;;;4988501;28;20038;-49
2023/04/12 10:42:15;;;;;;;302.60;52.95;;;11.70;99.90;;;;;;5014762;28;20044;-51
2023/04/12 10:44:41;;;;;;;13.30;9.00;;;11.90;99.90;;;;;;4999731;28;20045;-50
2023/04/12 10:47:08;;;;;;;10.85;6.82;;;12.30;99.90;;;;;;5038172;28;20041;-49
2023/04/12 10:49:34;;;;;;;1999.90;812.88;;;12.40;99.90;;;;;;5019622;28;20407;-49
2023/04/12 10:52:03;;;;;;;685.58;155.75;;;12.40;99.90;;;;;;5026981;28;20056;-52
2023/04/12 10:54:29;;;;;;;223.88;46.63;;;12.70;99.90;;;;;;5008601;28;20064;-51
2023/04/12 10:56:57;;;;;;;644.55;111.10;;;12.50;99.90;;;;;;5002887;28;20061;-54
2023/04/12 10:59:58;;;;;;;17.50;7.95;;;12.50;99.90;;;;;;5015564;28;20496;-54
2023/04/12 11:02:24;;;;;;;15.50;6.07;;;12.50;99.90;;;;;;5011734;28;20045;-53
2023/04/12 11:05:10;;;;;;;819.50;169.32;;;12.10;99.90;;;;;;5020060;28;20107;-52
2023/04/12 11:07:40;;;;;;;10.88;5.30;;;11.80;99.90;;;;;;5013294;28;20037;-49
2023/04/12 11:10:18;;;;;;;70.05;14.60;;;11.80;99.90;;;;;;5020257;28;20047;-49
2023/04/12 11:12:59;;;;;;;8.93;4.85;;;12.30;99.90;;;;;;5019146;28;20775;-48
2023/04/12 11:15:33;;;;;;;7.85;5.47;;;11.60;99.90;;;;;;5016967;28;20442;-42
2023/04/12 11:17:59;;;;;;;8.35;6.05;;;11.60;99.90;;;;;;4998510;28;20115;-42
2023/04/12 11:20:26;;;;;;;8.20;5.38;;;11.90;99.90;;;;;;5022106;28;20626;-43
2023/04/12 11:22:53;;;;;;;8.98;5.03;;;11.40;99.90;;;;;;5013279;28;20050;-44
2023/04/12 11:25:19;;;;;;;11.02;5.35;;;11.30;99.90;;;;;;5022835;28;20049;-46
2023/04/12 11:27:53;;;;;;;49.03;10.60;;;11.10;99.90;;;;;;5006665;28;20858;-51
2023/04/12 11:30:19;;;;;;;11.68;5.53;;;11.00;99.90;;;;;;5007009;28;20110;-44
2023/04/12 11:32:54;;;;;;;15.63;5.07;;;11.10;99.90;;;;;;5009534;28;20037;-46
2023/04/12 11:35:26;;;;;;;100.10;18.75;;;11.00;99.90;;;;;;5013714;28;21261;-43
2023/04/12 11:37:53;;;;;;;14.00;5.53;;;10.90;99.90;;;;;;4988081;28;21776;-44
2023/04/12 11:40:21;;;;;;;17.77;5.68;;;11.00;99.90;;;;;;5024351;28;20037;-48
2023/04/12 11:42:47;;;;;;;109.97;19.40;;;11.00;99.90;;;;;;5015657;28;20036;-47
2023/04/12 11:45:18;;;;;;;10.02;3.58;;;11.00;99.90;;;;;;5004678;28;20796;-43
2023/04/12 11:47:45;;;;;;;8.87;4.07;;;11.10;99.90;;;;;;5017157;28;20029;-44
2023/04/12 11:50:11;;;;;;;13.23;5.40;;;;;;;;;;5027574;28;20299;-44
2023/04/12 11:52:49;;;;;;;17.88;5.20;;;11.50;99.90;;;;;;5021262;28;20053;-49
2023/04/12 11:55:48;;;;;;;11.38;4.40;;;11.60;99.90;;;;;;5020628;28;20052;-45
2023/04/12 11:58:14;;;;;;;13.00;4.10;;;11.60;99.90;;;;;;5021037;28;20053;-46
2023/04/12 12:00:42;;;;;;;14.23;4.47;;;11.60;99.90;;;;;;5007331;28;20051;-49
2023/04/12 12:03:08;;;;;;;13.60;4.55;;;11.80;99.90;;;;;;5009120;28;20638;-46
2023/04/12 12:05:37;;;;;;;11.45;4.25;;;11.90;99.90;;;;;;5010367;28;20048;-42
2023/04/12 12:08:06;;;;;;;11.20;4.15;;;12.00;99.90;;;;;;5002978;28;20041;-43
2023/04/12 12:10:33;;;;;;;14.77;3.15;;;12.30;99.90;;;;;;5027766;28;20487;-43
2023/04/12 12:12:59;;;;;;;10.13;3.20;;;12.40;99.90;;;;;;5030946;28;20033;-44
2023/04/12 12:15:30;;;;;;;13.80;3.45;;;12.40;99.90;;;;;;5022195;28;20029;-46
2023/04/12 12:17:56;;;;;;;11.95;3.25;;;12.30;99.90;;;;;;5012547;28;20144;-44
2023/04/12 12:20:23;;;;;;;13.57;3.65;;;12.30;99.90;;;;;;5013891;28;20054;-44
2023/04/12 12:22:49;;;;;;;13.32;3.30;;;12.30;99.90;;;;;;5010192;28;20835;-45
2023/04/12 12:25:17;;;;;;;14.43;3.30;;;12.40;99.90;;;;;;5007263;28;20080;-46
2023/04/12 12:27:47;;;;;;;11.13;2.97;;;12.40;99.90;;;;;;5007972;28;20054;-43
2023/04/12 12:30:18;;;;;;;11.52;2.30;;;12.50;99.90;;;;;;5008048;28;20053;-45
2023/04/12 12:32:44;;;;;;;14.23;2.65;;;12.40;99.90;;;;;;5020693;28;20046;-45
2023/04/12 12:35:12;;;;;;;9.93;2.25;;;12.40;99.90;;;;;;5013677;28;20048;-43
2023/04/12 12:37:51;;;;;;;10.48;2.03;;;12.30;99.90;;;;;;5015718;28;20120;-47
2023/04/12 12:40:20;;;;;;;11.25;1.95;;;12.30;99.90;;;;;;5011579;28;20513;-43
2023/04/12 12:42:51;;;;;;;13.85;1.70;;;12.30;99.90;;;;;;5010253;28;20046;-45
2023/04/12 12:45:19;;;;;;;9.70;0.83;;;12.20;99.90;;;;;;5021175;28;20123;-45
2023/04/12 12:47:47;;;;;;;8.77;1.63;;;11.90;99.90;;;;;;5007726;28;20072;-46
2023/04/12 12:50:16;;;;;;;9.05;1.17;;;11.80;99.90;;;;;;5007717;28;20055;-46
2023/04/12 12:52:44;;;;;;;7.35;1.55;;;11.60;99.90;;;;;;5013119;28;20053;-44
2023/04/12 12:55:09;;;;;;;9.65;1.40;;;11.90;99.90;;;;;;5007561;28;20081;-44